Time;durP1;ratioP1;P1;durP2;ratioP2;P2;SDS_P1;SDS_P2;PMS_P1;PMS_P2;Temp;Humidity;BMP_temperature;BMP_pressure;BME280_temperature;BME280_humidity;BME280_pressure;Samples;Min_cycle;Max_cycle;Signal;HPM_P1;HPM_P2
2021/08/24 00:00:49;;;;;;;8.60;5.30;;;;;;;;;;5025368;28;20301;-67
2021/08/24 00:03:16;;;;;;;8.00;4.97;;;;;;;;;;5028900;28;20375;-67
2021/08/24 00:05:43;;;;;;;9.65;5.45;;;;;;;;;;5024188;28;20046;-66
2021/08/24 00:08:10;;;;;;;8.57;5.60;;;;;;;;;;5029146;28;20063;-66
2021/08/24 00:10:38;;;;;;;8.10;5.50;;;;;;;;;;5022951;28;20085;-66
2021/08/24 00:13:05;;;;;;;9.60;5.63;;;;;;;;;;5024563;28;20068;-66
2021/08/24 00:15:33;;;;;;;11.02;6.75;;;;;;;;;;5033189;28;20145;-66
2021/08/24 00:18:00;;;;;;;7.35;5.47;;;;;;;;;;5027317;28;20390;-66
2021/08/24 00:20:30;;;;;;;9.05;5.65;;;;;;;;;;5022359;28;20466;-66
2021/08/24 00:23:01;;;;;;;10.45;5.35;;;;;;;;;;5022567;28;20464;-66
2021/08/24 00:25:28;;;;;;;7.00;5.60;;;;;;;;;;5021279;28;20153;-66
2021/08/24 00:27:54;;;;;;;6.32;5.20;;;;;;;;;;5020718;28;20141;-66
2021/08/24 00:30:20;;;;;;;10.02;5.68;;;;;;;;;;5022425;28;20060;-66
2021/08/24 00:32:47;;;;;;;11.15;5.68;;;;;;;;;;5020624;28;20458;-66
2021/08/24 00:35:13;;;;;;;7.45;5.20;;;;;;;;;;5023172;28;20100;-66
2021/08/24 00:37:40;;;;;;;12.98;5.65;;;;;;;;;;5023183;28;20067;-66
2021/08/24 00:40:07;;;;;;;7.80;5.40;;;;;;;;;;5024573;28;20128;-66
2021/08/24 00:42:35;;;;;;;9.43;5.03;;;;;;;;;;5022608;28;20140;-66
2021/08/24 00:45:03;;;;;;;7.28;4.78;;;;;;;;;;5027574;28;20042;-66
2021/08/24 00:47:32;;;;;;;6.30;4.45;;;;;;;;;;5024198;28;20074;-66
2021/08/24 00:49:58;;;;;;;;;;;;;;;;;;5019732;28;20070;-66
2021/08/24 00:52:25;;;;;;;7.32;4.80;;;;;;;;;;5026290;28;19960;-66
2021/08/24 00:54:54;;;;;;;7.43;4.43;;;;;;;;;;5024802;28;20065;-66
2021/08/24 00:57:22;;;;;;;5.88;4.70;;;;;;;;;;5021739;28;20081;-66
2021/08/24 00:59:49;;;;;;;7.75;5.78;;;;;;;;;;5019696;28;20042;-66
2021/08/24 01:02:19;;;;;;;9.43;5.28;;;;;;;;;;5024659;28;20495;-66
2021/08/24 01:04:46;;;;;;;6.43;4.93;;;;;;;;;;5030221;28;20041;-66
2021/08/24 01:07:19;;;;;;;11.23;6.03;;;;;;;;;;5021376;28;20133;-66
2021/08/24 01:09:52;;;;;;;9.30;5.35;;;;;;;;;;5025796;28;20133;-66
2021/08/24 01:12:27;;;;;;;8.52;5.50;;;;;;;;;;5024765;28;20472;-66
2021/08/24 01:15:07;;;;;;;8.82;5.90;;;;;;;;;;5025340;28;20128;-66
2021/08/24 01:17:40;;;;;;;14.75;5.43;;;;;;;;;;5026717;28;20223;-66
2021/08/24 01:20:26;;;;;;;13.20;5.68;;;;;;;;;;5022948;28;20572;-66
2021/08/24 01:23:05;;;;;;;9.35;5.70;;;;;;;;;;5023855;28;20129;-66
2021/08/24 01:25:35;;;;;;;8.25;4.82;;;;;;;;;;5026617;28;20059;-66
2021/08/24 01:28:25;;;;;;;10.85;5.10;;;;;;;;;;5023156;28;20140;-66
2021/08/24 01:31:14;;;;;;;8.75;4.80;;;;;;;;;;5012351;28;20425;-66
2021/08/24 01:33:43;;;;;;;7.90;4.30;;;;;;;;;;5029587;28;20549;-66
2021/08/24 01:36:18;;;;;;;10.45;4.70;;;;;;;;;;5018883;28;20042;-65
2021/08/24 01:38:49;;;;;;;6.95;4.35;;;;;;;;;;5019192;28;20054;-66
2021/08/24 01:41:19;;;;;;;7.88;5.45;;;;;;;;;;5025142;28;20137;-65
2021/08/24 01:43:52;;;;;;;7.30;5.43;;;;;;;;;;5019839;28;20119;-66
2021/08/24 01:46:31;;;;;;;8.05;5.40;;;;;;;;;;5021237;28;20084;-65
2021/08/24 01:48:57;;;;;;;;;;;;;;;;;;5026376;28;20140;-66
2021/08/24 01:51:25;;;;;;;9.55;5.35;;;;;;;;;;5024536;28;19948;-66
2021/08/24 01:53:58;;;;;;;8.18;5.53;;;;;;;;;;5023236;28;20551;-66
2021/08/24 01:56:27;;;;;;;8.60;5.40;;;;;;;;;;5003620;28;20572;-66
2021/08/24 01:59:03;;;;;;;7.40;4.53;;;;;;;;;;5003674;28;20129;-66
2021/08/24 02:01:31;;;;;;;7.90;5.28;;;;;;;;;;5022634;28;20049;-66
2021/08/24 02:03:59;;;;;;;8.32;5.15;;;;;;;;;;5025492;28;20176;-66
2021/08/24 02:06:34;;;;;;;8.50;5.20;;;;;;;;;;5021788;28;20085;-66
2021/08/24 02:09:03;;;;;;;9.18;5.47;;;;;;;;;;5024523;28;20051;-66
2021/08/24 02:11:31;;;;;;;11.60;5.90;;;;;;;;;;5025021;28;20049;-66
2021/08/24 02:14:00;;;;;;;9.30;5.75;;;;;;;;;;5014848;28;20045;-66
2021/08/24 02:16:28;;;;;;;10.95;5.63;;;;;;;;;;5018217;28;20133;-66
2021/08/24 02:18:54;;;;;;;;;;;;;;;;;;5026954;28;20053;-66
2021/08/24 02:21:24;;;;;;;8.70;4.82;;;;;;;;;;5015052;28;19971;-66
2021/08/24 02:23:51;;;;;;;9.30;6.07;;;;;;;;;;5019182;28;20081;-66
2021/08/24 02:26:19;;;;;;;9.70;5.53;;;;;;;;;;5022019;28;20072;-66
2021/08/24 02:31:32;;;;;;;13.88;5.75;;;;;;;;;;4958913;28;20089;-68
2021/08/24 02:34:03;;;;;;;9.23;6.57;;;;;;;;;;4967388;28;20133;-68
2021/08/24 02:36:31;;;;;;;12.07;6.13;;;;;;;;;;4962298;28;20129;-68
2021/08/24 02:39:00;;;;;;;10.30;6.30;;;;;;;;;;4960881;28;20061;-68
2021/08/24 02:41:31;;;;;;;13.77;6.38;;;;;;;;;;4969538;28;20081;-68
2021/08/24 02:44:05;;;;;;;9.60;6.28;;;;;;;;;;4964958;28;20153;-68
2021/08/24 02:46:33;;;;;;;6.40;5.38;;;;;;;;;;4967413;28;20482;-68
2021/08/24 02:49:03;;;;;;;6.97;5.05;;;;;;;;;;4964653;28;20077;-68
2021/08/24 02:51:30;;;;;;;11.43;5.13;;;;;;;;;;4964772;28;20061;-68
2021/08/24 02:54:04;;;;;;;7.25;5.20;;;;;;;;;;4963371;28;20079;-68
2021/08/24 02:56:31;;;;;;;10.55;5.28;;;;;;;;;;4964478;28;20074;-68
2021/08/24 02:58:57;;;;;;;9.35;5.05;;;;;;;;;;4966350;28;20138;-68
2021/08/24 03:01:23;;;;;;;7.82;5.60;;;;;;;;;;4964963;28;20078;-68
2021/08/24 03:03:50;;;;;;;6.93;5.60;;;;;;;;;;4967260;28;20047;-68
2021/08/24 03:06:17;;;;;;;10.48;5.82;;;;;;;;;;4966352;28;20581;-68
2021/08/24 03:08:44;;;;;;;10.90;5.30;;;;;;;;;;4959868;28;20043;-68
2021/08/24 03:11:12;;;;;;;10.85;5.20;;;;;;;;;;4962642;28;20505;-68
2021/08/24 03:13:43;;;;;;;8.95;5.30;;;;;;;;;;4970200;28;20062;-68
2021/08/24 03:16:18;;;;;;;10.65;5.68;;;;;;;;;;4972818;28;20071;-68
2021/08/24 03:18:53;;;;;;;7.25;5.25;;;;;;;;;;4969654;28;20405;-68
2021/08/24 03:21:22;;;;;;;9.80;6.15;;;;;;;;;;4966612;28;20133;-68
2021/08/24 03:23:50;;;;;;;9.85;6.00;;;;;;;;;;4973346;28;20082;-68
2021/08/24 03:26:26;;;;;;;9.45;5.72;;;;;;;;;;4970576;28;20117;-68
2021/08/24 03:28:54;;;;;;;10.23;5.95;;;;;;;;;;4977273;28;20136;-67
2021/08/24 03:31:20;;;;;;;9.93;5.40;;;;;;;;;;4991430;28;20145;-68
2021/08/24 03:33:47;;;;;;;8.40;5.50;;;;;;;;;;4992443;28;20077;-68
2021/08/24 03:36:14;;;;;;;10.57;6.25;;;;;;;;;;4991739;28;20062;-68
2021/08/24 03:38:41;;;;;;;10.43;6.00;;;;;;;;;;4994322;28;20078;-68
2021/08/24 03:41:08;;;;;;;17.15;7.30;;;;;;;;;;4987148;28;20544;-68
2021/08/24 03:43:35;;;;;;;9.13;6.45;;;;;;;;;;4993893;28;20142;-68
2021/08/24 03:46:02;;;;;;;7.85;6.13;;;;;;;;;;4992041;28;20511;-68
2021/08/24 03:48:29;;;;;;;17.35;7.78;;;;;;;;;;4994576;28;20050;-68
2021/08/24 03:50:55;;;;;;;10.60;7.43;;;;;;;;;;4992467;28;20548;-68
2021/08/24 03:53:22;;;;;;;10.55;7.85;;;;;;;;;;4993015;28;20134;-68
2021/08/24 03:55:48;;;;;;;12.23;7.32;;;;;;;;;;4988820;28;20146;-68
2021/08/24 03:58:15;;;;;;;12.30;8.05;;;;;;;;;;4992948;28;20145;-68
2021/08/24 04:00:45;;;;;;;15.95;7.75;;;;;;;;;;4990219;28;20133;-68
2021/08/24 04:03:11;;;;;;;18.05;8.70;;;;;;;;;;4985981;28;20043;-68
2021/08/24 04:05:38;;;;;;;13.05;8.90;;;;;;;;;;4993774;28;20046;-67
2021/08/24 04:08:05;;;;;;;16.10;8.98;;;;;;;;;;4988094;28;20078;-67
2021/08/24 04:10:32;;;;;;;14.03;9.13;;;;;;;;;;4988452;28;20092;-68
2021/08/24 04:12:58;;;;;;;15.97;10.00;;;;;;;;;;4994142;28;20480;-68
2021/08/24 04:15:25;;;;;;;17.77;9.57;;;;;;;;;;4988321;28;20325;-68
2021/08/24 04:17:52;;;;;;;16.97;9.93;;;;;;;;;;4992498;28;20050;-68
2021/08/24 04:20:19;;;;;;;13.50;9.40;;;;;;;;;;4991930;28;20046;-68
2021/08/24 04:22:47;;;;;;;14.45;8.50;;;;;;;;;;4990978;28;20054;-68
2021/08/24 04:25:14;;;;;;;12.75;8.73;;;;;;;;;;4990429;28;20089;-68
2021/08/24 04:27:41;;;;;;;14.15;8.40;;;;;;;;;;4991301;28;20140;-68
2021/08/24 04:30:08;;;;;;;12.45;7.53;;;;;;;;;;4984073;28;20085;-68
2021/08/24 04:32:35;;;;;;;12.82;7.68;;;;;;;;;;4989394;28;20144;-68
2021/08/24 04:35:03;;;;;;;11.50;7.40;;;;;;;;;;4986197;28;20548;-68
2021/08/24 04:37:29;;;;;;;9.45;7.15;;;;;;;;;;4984561;28;20169;-68
2021/08/24 04:39:55;;;;;;;12.15;6.85;;;;;;;;;;4987308;28;20473;-68
2021/08/24 04:42:22;;;;;;;11.30;7.60;;;;;;;;;;4991980;28;20212;-68
2021/08/24 04:44:48;;;;;;;10.07;6.53;;;;;;;;;;4983838;28;20145;-68
2021/08/24 04:47:15;;;;;;;10.77;6.63;;;;;;;;;;4987065;28;20070;-68
2021/08/24 04:49:42;;;;;;;9.05;6.57;;;;;;;;;;4984997;28;20120;-68
2021/08/24 04:52:08;;;;;;;10.77;6.35;;;;;;;;;;4992729;28;20051;-68
2021/08/24 04:54:35;;;;;;;12.48;6.78;;;;;;;;;;4990361;28;20141;-67
2021/08/24 04:57:05;;;;;;;11.95;7.13;;;;;;;;;;4988167;28;20050;-68
2021/08/24 04:59:32;;;;;;;10.18;7.10;;;;;;;;;;4991052;28;20078;-67
2021/08/24 05:01:58;;;;;;;13.35;8.18;;;;;;;;;;4988883;28;20145;-67
2021/08/24 05:04:25;;;;;;;10.13;7.80;;;;;;;;;;4989218;28;20391;-68
2021/08/24 05:06:52;;;;;;;13.43;8.33;;;;;;;;;;4985825;28;20133;-67
2021/08/24 05:09:19;;;;;;;12.57;7.90;;;;;;;;;;4985263;28;20093;-68
2021/08/24 05:11:46;;;;;;;12.03;7.93;;;;;;;;;;4988291;28;20576;-67
2021/08/24 05:14:12;;;;;;;18.53;8.47;;;;;;;;;;4985439;28;20310;-68
2021/08/24 05:16:40;;;;;;;15.52;8.57;;;;;;;;;;4988423;28;20078;-69
2021/08/24 05:19:08;;;;;;;10.43;7.40;;;;;;;;;;4985430;28;20039;-68
2021/08/24 05:21:35;;;;;;;14.30;8.40;;;;;;;;;;4982766;28;20054;-68
2021/08/24 05:24:01;;;;;;;11.25;8.15;;;;;;;;;;4984297;28;20218;-68
2021/08/24 05:26:29;;;;;;;11.48;7.55;;;;;;;;;;4984566;28;20084;-67
2021/08/24 05:28:55;;;;;;;13.57;7.45;;;;;;;;;;4982681;28;20072;-67
2021/08/24 05:31:22;;;;;;;14.95;8.40;;;;;;;;;;4985977;28;20137;-67
2021/08/24 05:33:48;;;;;;;9.98;6.95;;;;;;;;;;4989666;28;20128;-67
2021/08/24 05:36:15;;;;;;;10.57;6.25;;;;;;;;;;4983532;28;20082;-67
2021/08/24 05:38:41;;;;;;;9.77;6.95;;;;;;;;;;4979125;28;20147;-67
2021/08/24 05:41:09;;;;;;;12.23;6.82;;;;;;;;;;4983573;28;20141;-67
2021/08/24 05:43:35;;;;;;;11.00;6.97;;;;;;;;;;4985636;28;20062;-67
2021/08/24 05:46:06;;;;;;;13.25;6.75;;;;;;;;;;4983229;28;20501;-67
2021/08/24 05:48:36;;;;;;;11.00;6.72;;;;;;;;;;4981389;28;20054;-67
2021/08/24 05:51:14;;;;;;;13.85;7.45;;;;;;;;;;4983575;28;20126;-67
2021/08/24 05:53:41;;;;;;;10.80;6.60;;;;;;;;;;4985210;28;20161;-67
2021/08/24 05:56:12;;;;;;;6.90;5.80;;;;;;;;;;4984530;28;20133;-67
2021/08/24 05:58:39;;;;;;;7.95;6.57;;;;;;;;;;4987980;28;20589;-67
2021/08/24 06:01:07;;;;;;;8.35;5.70;;;;;;;;;;4982053;28;20101;-67
2021/08/24 06:03:33;;;;;;;12.02;5.82;;;;;;;;;;4981748;28;20430;-67
2021/08/24 06:06:00;;;;;;;11.30;5.40;;;;;;;;;;4984111;28;20086;-67
2021/08/24 06:08:28;;;;;;;10.43;5.53;;;;;;;;;;4985225;28;20078;-67
2021/08/24 06:10:54;;;;;;;6.10;4.80;;;;;;;;;;4981986;28;20498;-67
2021/08/24 06:13:20;;;;;;;8.15;5.50;;;;;;;;;;4982006;28;20132;-67
2021/08/24 06:15:47;;;;;;;6.45;4.60;;;;;;;;;;4981614;28;20137;-67
2021/08/24 06:18:14;;;;;;;7.20;3.90;;;;;;;;;;4986737;28;20082;-67
2021/08/24 06:20:42;;;;;;;5.47;4.15;;;;;;;;;;4986928;28;20054;-67
2021/08/24 06:23:09;;;;;;;;;;;;;;;;;;4983182;28;20055;-67
2021/08/24 06:25:35;;;;;;;6.13;3.78;;;;;;;;;;4986510;28;19965;-67
2021/08/24 06:28:01;;;;;;;8.00;4.25;;;;;;;;;;4984639;28;20098;-67
2021/08/24 06:30:28;;;;;;;5.43;3.80;;;;;;;;;;4987921;28;20585;-67
2021/08/24 06:32:56;;;;;;;8.93;4.32;;;;;;;;;;4985900;28;20050;-67
2021/08/24 06:35:23;;;;;;;6.85;3.60;;;;;;;;;;4981547;28;20547;-67
2021/08/24 06:37:53;;;;;;;6.88;3.40;;;;;;;;;;4984041;28;20065;-67
2021/08/24 06:40:20;;;;;;;4.05;3.17;;;;;;;;;;4984758;28;20051;-67
2021/08/24 06:42:50;;;;;;;7.50;3.60;;;;;;;;;;4985763;28;20137;-67
2021/08/24 06:45:24;;;;;;;8.73;4.38;;;;;;;;;;4984733;28;20101;-67
2021/08/24 06:47:50;;;;;;;7.53;3.67;;;;;;;;;;4980510;28;20544;-67
2021/08/24 06:50:18;;;;;;;5.63;3.35;;;;;;;;;;4985734;28;20054;-67
2021/08/24 06:52:45;;;;;;;4.00;2.92;;;;;;;;;;4984709;28;20141;-67
2021/08/24 06:55:12;;;;;;;4.10;3.10;;;;;;;;;;4982222;28;20612;-67
2021/08/24 06:57:40;;;;;;;6.60;3.45;;;;;;;;;;4978239;28;20580;-67
2021/08/24 07:00:07;;;;;;;8.50;3.25;;;;;;;;;;4982057;28;20133;-67
2021/08/24 07:02:34;;;;;;;4.82;3.00;;;;;;;;;;4983322;28;20355;-67
2021/08/24 07:05:01;;;;;;;5.65;2.70;;;;;;;;;;4984705;28;20109;-67
2021/08/24 07:07:27;;;;;;;5.27;2.77;;;;;;;;;;4977664;28;20047;-67
2021/08/24 07:09:54;;;;;;;3.97;3.10;;;;;;;;;;4982464;28;20597;-67
2021/08/24 07:12:21;;;;;;;6.03;3.15;;;;;;;;;;4982156;28;20600;-67
2021/08/24 07:14:47;;;;;;;4.07;2.97;;;;;;;;;;4979586;28;20134;-67
2021/08/24 07:17:14;;;;;;;5.50;2.78;;;;;;;;;;4982161;28;20081;-67
2021/08/24 07:19:41;;;;;;;3.50;2.45;;;;;;;;;;4983567;28;20149;-67
2021/08/24 07:22:07;;;;;;;5.68;3.08;;;;;;;;;;4987102;28;20074;-67
2021/08/24 07:24:33;;;;;;;3.15;2.60;;;;;;;;;;4983987;28;20078;-67
2021/08/24 07:27:00;;;;;;;4.15;2.78;;;;;;;;;;4982183;28;20154;-67
2021/08/24 07:29:27;;;;;;;7.43;2.50;;;;;;;;;;4976273;28;20074;-67
2021/08/24 07:31:53;;;;;;;4.43;2.50;;;;;;;;;;4985337;28;20085;-67
2021/08/24 07:34:20;;;;;;;4.68;2.60;;;;;;;;;;4984498;28;20137;-67
2021/08/24 07:36:47;;;;;;;9.85;2.72;;;;;;;;;;4982610;28;20121;-64
2021/08/24 07:39:13;;;;;;;7.47;2.85;;;;;;;;;;4983293;28;20141;-64
2021/08/24 07:41:40;;;;;;;5.90;2.77;;;;;;;;;;4979896;28;20306;-64
2021/08/24 07:44:06;;;;;;;5.10;2.40;;;;;;;;;;4982782;28;20093;-64
2021/08/24 07:46:32;;;;;;;3.55;2.40;;;;;;;;;;4980800;28;20141;-64
2021/08/24 07:48:59;;;;;;;3.80;2.60;;;;;;;;;;4982015;28;20497;-64
2021/08/24 07:51:29;;;;;;;5.75;2.75;;;;;;;;;;4982276;28;20414;-65
2021/08/24 07:53:55;;;;;;;6.18;2.70;;;;;;;;;;4981915;28;20133;-64
2021/08/24 07:56:22;;;;;;;4.40;2.60;;;;;;;;;;4985850;28;20133;-64
2021/08/24 07:58:48;;;;;;;7.22;2.70;;;;;;;;;;4980150;28;20146;-64
2021/08/24 08:01:15;;;;;;;7.03;2.67;;;;;;;;;;4985751;28;20061;-64
2021/08/24 08:03:42;;;;;;;3.78;2.42;;;;;;;;;;4990843;28;20129;-64
2021/08/24 08:06:09;;;;;;;5.50;2.40;;;;;;;;;;4989849;28;20440;-64
2021/08/24 08:08:35;;;;;;;7.75;2.60;;;;;;;;;;4983836;28;20150;-64
2021/08/24 08:11:02;;;;;;;3.75;2.72;;;;;;;;;;4984849;28;20176;-64
2021/08/24 08:13:29;;;;;;;3.83;2.65;;;;;;;;;;4987007;28;20464;-64
2021/08/24 08:15:56;;;;;;;4.30;2.58;;;;;;;;;;4985209;28;20085;-64
2021/08/24 08:18:23;;;;;;;4.45;2.60;;;;;;;;;;4986114;28;20501;-67
2021/08/24 08:20:49;;;;;;;6.38;2.78;;;;;;;;;;4991655;28;20055;-64
2021/08/24 08:23:17;;;;;;;4.35;2.35;;;;;;;;;;4980953;28;20141;-64
2021/08/24 08:25:44;;;;;;;3.13;2.15;;;;;;;;;;4991359;28;20076;-66
2021/08/24 08:28:11;;;;;;;3.10;2.35;;;;;;;;;;4987519;28;20085;-67
2021/08/24 08:30:40;;;;;;;4.93;2.70;;;;;;;;;;4983514;28;20529;-67
2021/08/24 08:33:06;;;;;;;7.97;2.30;;;;;;;;;;4980363;28;20140;-67
2021/08/24 08:35:33;;;;;;;4.47;2.05;;;;;;;;;;4987975;28;20584;-66
2021/08/24 08:37:59;;;;;;;4.28;2.30;;;;;;;;;;4991799;28;20137;-66
2021/08/24 08:40:47;;;;;;;4.32;2.50;;;;;;;;;;4988333;28;20062;-66
2021/08/24 08:43:30;;;;;;;9.38;2.53;;;;;;;;;;4980963;28;20052;-66
2021/08/24 08:46:02;;;;;;;3.85;2.20;;;;;;;;;;4986162;28;20088;-66
2021/08/24 08:48:34;;;;;;;4.93;2.38;;;;;;;;;;4986419;28;20148;-66
2021/08/24 08:51:08;;;;;;;3.08;2.13;;;;;;;;;;4983536;28;20053;-66
2021/08/24 08:53:41;;;;;;;9.02;2.33;;;;;;;;;;4988674;28;20082;-66
2021/08/24 08:56:17;;;;;;;4.63;2.38;;;;;;;;;;4981855;28;20085;-67
2021/08/24 08:58:44;;;;;;;5.65;2.20;;;;;;;;;;4985903;28;20528;-66
2021/08/24 09:01:16;;;;;;;2.63;1.95;;;;;;;;;;4987799;28;20102;-66
2021/08/24 09:04:02;;;;;;;4.32;2.40;;;;;;;;;;4986452;28;20099;-66
2021/08/24 09:06:28;;;;;;;4.38;2.60;;;;;;;;;;4986475;28;20081;-66
2021/08/24 09:08:57;;;;;;;4.90;2.47;;;;;;;;;;4988189;28;20523;-66
2021/08/24 09:11:31;;;;;;;5.20;2.30;;;;;;;;;;4983787;28;20078;-66
2021/08/24 09:14:03;;;;;;;2.95;2.40;;;;;;;;;;4986494;28;20046;-66
2021/08/24 09:16:31;;;;;;;5.55;2.50;;;;;;;;;;4984927;28;20141;-66
2021/08/24 09:19:08;;;;;;;3.90;2.30;;;;;;;;;;4987853;28;20078;-66
2021/08/24 09:21:36;;;;;;;5.45;2.20;;;;;;;;;;4983750;28;20145;-66
2021/08/24 09:24:06;;;;;;;7.30;2.28;;;;;;;;;;4971555;28;20085;-66
2021/08/24 09:26:41;;;;;;;6.50;2.60;;;;;;;;;;4986455;28;20081;-66
2021/08/24 09:29:09;;;;;;;5.78;2.22;;;;;;;;;;4988518;28;20058;-67
2021/08/24 09:31:35;;;;;;;6.50;2.20;;;;;;;;;;4986594;28;20561;-66
2021/08/24 09:34:02;;;;;;;4.95;2.25;;;;;;;;;;4981223;28;20391;-66
2021/08/24 09:36:29;;;;;;;;;;;;;;;;;;4983335;28;20050;-66
2021/08/24 09:38:57;;;;;;;6.38;2.28;;;;;;;;;;4986010;28;20012;-64
2021/08/24 09:41:26;;;;;;;5.95;2.30;;;;;;;;;;4982382;28;20129;-64
2021/08/24 09:44:19;;;;;;;6.82;2.33;;;;;;;;;;4981215;28;20556;-64
2021/08/24 09:46:46;;;;;;;4.18;2.47;;;;;;;;;;4985972;28;20293;-64
2021/08/24 09:49:22;;;;;;;3.65;2.40;;;;;;;;;;4981992;28;20049;-64
2021/08/24 09:51:56;;;;;;;3.40;2.40;;;;;;;;;;4982548;28;20134;-64
2021/08/24 09:54:32;;;;;;;10.93;2.28;;;;;;;;;;4986802;28;20080;-64
2021/08/24 09:57:18;;;;;;;8.43;2.30;;;;;;;;;;4981783;28;20057;-64
2021/08/24 10:00:08;;;;;;;7.28;2.40;;;;;;;;;;4985894;28;20416;-64
2021/08/24 10:02:42;;;;;;;4.07;2.20;;;;;;;;;;4985687;28;20058;-64
2021/08/24 10:05:21;;;;;;;6.35;2.40;;;;;;;;;;4985523;28;20054;-64
2021/08/24 10:07:55;;;;;;;3.08;2.28;;;;;;;;;;4980814;28;20134;-64
2021/08/24 10:10:33;;;;;;;8.25;2.33;;;;;;;;;;4987149;28;20058;-64
2021/08/24 10:13:20;;;;;;;4.50;2.20;;;;;;;;;;4981358;28;20165;-65
2021/08/24 10:15:48;;;;;;;6.20;2.30;;;;;;;;;;4975962;28;20591;-65
2021/08/24 10:18:25;;;;;;;4.57;2.40;;;;;;;;;;4984356;28;20047;-65
2021/08/24 10:20:54;;;;;;;3.75;2.40;;;;;;;;;;4985609;28;20089;-65
2021/08/24 10:23:21;;;;;;;4.20;2.40;;;;;;;;;;4983569;28;20129;-65
2021/08/24 10:25:49;;;;;;;6.50;2.28;;;;;;;;;;4984448;28;20129;-65
2021/08/24 10:28:22;;;;;;;5.75;2.25;;;;;;;;;;4987110;28;20078;-65
2021/08/24 10:30:57;;;;;;;6.28;2.35;;;;;;;;;;4980091;28;20529;-65
2021/08/24 10:33:32;;;;;;;4.78;2.22;;;;;;;;;;4984142;28;20057;-65
2021/08/24 10:36:02;;;;;;;5.95;2.20;;;;;;;;;;4985476;28;20326;-65
2021/08/24 10:38:53;;;;;;;6.82;2.17;;;;;;;;;;4981917;28;20140;-65
2021/08/24 10:41:21;;;;;;;11.07;2.05;;;;;;;;;;4986133;28;20130;-65
2021/08/24 10:43:49;;;;;;;4.65;2.30;;;;;;;;;;4985467;28;20054;-65
2021/08/24 10:46:16;;;;;;;4.00;2.22;;;;;;;;;;4984923;28;20153;-65
2021/08/24 10:48:42;;;;;;;6.72;2.40;;;;;;;;;;4978523;28;20085;-65
2021/08/24 10:51:16;;;;;;;6.07;2.50;;;;;;;;;;4985915;28;20071;-65
2021/08/24 10:53:46;;;;;;;3.60;2.42;;;;;;;;;;4981496;28;20105;-65
2021/08/24 10:56:33;;;;;;;8.32;2.55;;;;;;;;;;4987401;28;20086;-65
2021/08/24 10:59:29;;;;;;;4.32;2.13;;;;;;;;;;4983942;28;20085;-65
2021/08/24 11:02:01;;;;;;;4.07;2.40;;;;;;;;;;4965982;28;20515;-65
2021/08/24 11:04:36;;;;;;;3.45;2.35;;;;;;;;;;4985296;28;20089;-65
2021/08/24 11:07:27;;;;;;;4.03;2.10;;;;;;;;;;4985607;28;20128;-65
2021/08/24 11:09:53;;;;;;;7.55;3.03;;;;;;;;;;4982845;28;20493;-65
2021/08/24 11:12:29;;;;;;;3.87;2.23;;;;;;;;;;4986218;28;20157;-65
2021/08/24 11:15:04;;;;;;;6.20;2.40;;;;;;;;;;4981187;28;20450;-65
2021/08/24 11:17:41;;;;;;;4.72;2.50;;;;;;;;;;4984049;28;20121;-65
2021/08/24 11:20:10;;;;;;;5.55;2.20;;;;;;;;;;4986964;28;20137;-65
2021/08/24 11:22:46;;;;;;;3.80;2.55;;;;;;;;;;4981250;28;20086;-65
2021/08/24 11:25:12;;;;;;;11.80;2.70;;;;;;;;;;4990896;28;20065;-65
2021/08/24 11:28:00;;;;;;;3.80;2.47;;;;;;;;;;4983567;28;20314;-65
2021/08/24 11:30:27;;;;;;;4.18;2.53;;;;;;;;;;4982988;28;20129;-65
2021/08/24 11:32:56;;;;;;;4.90;2.25;;;;;;;;;;4981414;28;20167;-65
2021/08/24 11:35:48;;;;;;;5.00;2.25;;;;;;;;;;4987735;28;20145;-65
2021/08/24 11:38:21;;;;;;;7.30;2.75;;;;;;;;;;4983869;28;20054;-66
2021/08/24 11:40:50;;;;;;;7.93;2.72;;;;;;;;;;4983360;28;20465;-65
2021/08/24 11:43:36;;;;;;;6.13;2.55;;;;;;;;;;4987545;28;20125;-65
2021/08/24 11:46:06;;;;;;;4.53;2.05;;;;;;;;;;4984456;28;20050;-65
2021/08/24 11:48:36;;;;;;;5.18;2.53;;;;;;;;;;4987014;28;20083;-65
2021/08/24 11:51:07;;;;;;;5.35;2.20;;;;;;;;;;4989191;28;20138;-65
2021/08/24 11:53:57;;;;;;;4.93;2.30;;;;;;;;;;4986709;28;20052;-65
2021/08/24 11:56:35;;;;;;;4.28;2.13;;;;;;;;;;4984771;28;20101;-65
2021/08/24 11:59:05;;;;;;;3.45;2.08;;;;;;;;;;4985002;28;20078;-65
2021/08/24 12:01:33;;;;;;;4.05;2.30;;;;;;;;;;4990580;28;20087;-65
2021/08/24 12:04:03;;;;;;;6.47;2.53;;;;;;;;;;4984080;28;20113;-65
2021/08/24 12:06:49;;;;;;;3.40;2.20;;;;;;;;;;4988840;28;20220;-65
2021/08/24 12:09:34;;;;;;;4.28;2.42;;;;;;;;;;4976626;28;20141;-65
2021/08/24 12:12:01;;;;;;;8.85;2.15;;;;;;;;;;4984914;28;20047;-65
2021/08/24 12:14:36;;;;;;;4.10;2.30;;;;;;;;;;4979731;28;20093;-65
2021/08/24 12:17:20;;;;;;;6.32;2.63;;;;;;;;;;4982556;28;20133;-65
2021/08/24 12:19:59;;;;;;;5.00;2.40;;;;;;;;;;4979821;28;20138;-65
2021/08/24 12:22:29;;;;;;;3.97;2.55;;;;;;;;;;4987796;28;20366;-65
2021/08/24 12:25:01;;;;;;;3.63;2.30;;;;;;;;;;4985022;28;20074;-65
2021/08/24 12:27:28;;;;;;;5.93;2.40;;;;;;;;;;4985226;28;20532;-65
2021/08/24 12:30:12;;;;;;;2.63;2.22;;;;;;;;;;4983746;28;20448;-65
2021/08/24 12:32:41;;;;;;;6.68;2.67;;;;;;;;;;4987280;28;20141;-65
2021/08/24 12:35:11;;;;;;;5.45;2.35;;;;;;;;;;4983180;28;20105;-65
2021/08/24 12:37:37;;;;;;;4.93;2.60;;;;;;;;;;4983967;28;20085;-65
2021/08/24 12:40:10;;;;;;;2.67;2.25;;;;;;;;;;4983947;28;20093;-65
2021/08/24 12:42:40;;;;;;;5.15;2.47;;;;;;;;;;4990810;28;20129;-65
2021/08/24 12:45:10;;;;;;;4.63;2.05;;;;;;;;;;4982848;28;20174;-65
2021/08/24 12:47:44;;;;;;;4.70;2.15;;;;;;;;;;4983221;28;20145;-65
2021/08/24 12:50:11;;;;;;;9.43;2.17;;;;;;;;;;4986828;28;20101;-65
2021/08/24 12:52:41;;;;;;;4.90;2.50;;;;;;;;;;4989050;28;20590;-65
2021/08/24 12:55:26;;;;;;;5.25;2.60;;;;;;;;;;4981471;28;20090;-65
2021/08/24 12:58:11;;;;;;;7.90;2.15;;;;;;;;;;4989561;28;20149;-65
2021/08/24 13:00:39;;;;;;;4.47;2.30;;;;;;;;;;4982483;28;20468;-65
2021/08/24 13:03:24;;;;;;;4.88;2.30;;;;;;;;;;4991106;28;20054;-65
2021/08/24 13:06:29;;;;;;;4.53;2.28;;;;;;;;;;4986945;28;20051;-65
2021/08/24 13:09:14;;;;;;;6.07;2.88;;;;;;;;;;4918950;29;20549;-65
2021/08/24 13:11:41;;;;;;;5.13;2.40;;;;;;;;;;4921194;29;20550;-65
2021/08/24 13:14:29;;;;;;;4.40;2.25;;;;;;;;;;4956401;28;20090;-65
2021/08/24 13:16:56;;;;;;;3.35;2.42;;;;;;;;;;4979581;28;20125;-65
2021/08/24 13:19:26;;;;;;;3.55;2.20;;;;;;;;;;4985963;28;20283;-65
2021/08/24 13:21:54;;;;;;;6.30;2.40;;;;;;;;;;4984769;28;20590;-65
2021/08/24 13:24:28;;;;;;;7.13;2.40;;;;;;;;;;4991201;28;20049;-65
2021/08/24 13:26:58;;;;;;;5.35;2.50;;;;;;;;;;4984990;28;20081;-65
2021/08/24 13:29:26;;;;;;;3.13;2.10;;;;;;;;;;4983312;28;20093;-65
2021/08/24 13:31:53;;;;;;;5.63;2.38;;;;;;;;;;4979240;28;20083;-65
2021/08/24 13:34:51;;;;;;;5.07;2.42;;;;;;;;;;4987111;28;20146;-65
2021/08/24 13:37:33;;;;;;;3.45;2.03;;;;;;;;;;4952450;28;20331;-65
2021/08/24 13:40:05;;;;;;;6.78;2.85;;;;;;;;;;4982469;28;20133;-65
2021/08/24 13:42:33;;;;;;;4.10;2.67;;;;;;;;;;4985050;28;20042;-65
2021/08/24 13:45:00;;;;;;;8.15;2.80;;;;;;;;;;4985153;28;20141;-65
2021/08/24 13:47:27;;;;;;;5.45;2.20;;;;;;;;;;4982167;28;20057;-65
2021/08/24 13:49:55;;;;;;;2.97;2.20;;;;;;;;;;4984649;28;20137;-65
2021/08/24 13:52:26;;;;;;;4.43;2.20;;;;;;;;;;4986057;28;20200;-65
2021/08/24 13:54:54;;;;;;;7.68;2.40;;;;;;;;;;4989603;28;20137;-66
2021/08/24 13:57:20;;;;;;;;;;;;;;;;;;4982286;28;20097;-65
2021/08/24 13:59:50;;;;;;;6.20;2.80;;;;;;;;;;4983905;28;20032;-65
2021/08/24 14:02:17;;;;;;;5.43;2.08;;;;;;;;;;4981881;28;20141;-65
2021/08/24 14:04:47;;;;;;;3.78;2.17;;;;;;;;;;4987278;28;20137;-65
2021/08/24 14:07:20;;;;;;;4.80;2.20;;;;;;;;;;4984125;28;20133;-65
2021/08/24 14:09:48;;;;;;;4.13;2.17;;;;;;;;;;4983707;28;20466;-65
2021/08/24 14:12:21;;;;;;;4.30;2.20;;;;;;;;;;4978705;28;20123;-65
2021/08/24 14:14:50;;;;;;;5.43;2.33;;;;;;;;;;4987389;28;20137;-65
2021/08/24 14:17:27;;;;;;;4.38;2.70;;;;;;;;;;4980819;28;20101;-65
2021/08/24 14:19:55;;;;;;;6.80;2.30;;;;;;;;;;4984089;28;20081;-65
2021/08/24 14:22:22;;;;;;;3.90;2.28;;;;;;;;;;4980603;28;20633;-65
2021/08/24 14:24:48;;;;;;;;;;;;;;;;;;4981794;28;20200;-65
2021/08/24 14:27:16;;;;;;;4.28;2.25;;;;;;;;;;4983555;28;20008;-65
2021/08/24 14:29:43;;;;;;;3.95;2.22;;;;;;;;;;4985614;28;20085;-65
2021/08/24 14:32:29;;;;;;;4.75;2.30;;;;;;;;;;4983034;28;20129;-65
2021/08/24 14:34:56;;;;;;;6.57;2.40;;;;;;;;;;4978910;28;20085;-65
2021/08/24 14:37:23;;;;;;;7.95;2.88;;;;;;;;;;4981113;28;20086;-65
2021/08/24 14:39:56;;;;;;;5.80;2.38;;;;;;;;;;4987625;28;20045;-65
2021/08/24 14:42:26;;;;;;;4.32;2.33;;;;;;;;;;4989389;28;20165;-65
2021/08/24 14:44:53;;;;;;;4.97;2.63;;;;;;;;;;4984594;28;20136;-65
2021/08/24 14:47:23;;;;;;;7.90;2.50;;;;;;;;;;4986883;28;20141;-65
2021/08/24 14:49:50;;;;;;;8.73;2.53;;;;;;;;;;4983095;28;20517;-65
2021/08/24 14:52:26;;;;;;;4.88;2.60;;;;;;;;;;4981249;28;20074;-65
2021/08/24 14:54:56;;;;;;;7.15;2.70;;;;;;;;;;4986468;28;20133;-65
2021/08/24 14:57:42;;;;;;;7.43;2.83;;;;;;;;;;4979184;28;20104;-65
2021/08/24 15:00:24;;;;;;;9.10;3.10;;;;;;;;;;4985938;28;20112;-65
2021/08/24 15:02:55;;;;;;;6.18;2.80;;;;;;;;;;4987162;28;20069;-66
2021/08/24 15:05:23;;;;;;;5.60;2.55;;;;;;;;;;4981037;28;20055;-65